Time,TemperatureF,DewpointF,PressureIn,WindDirection,WindDirectionDegrees,WindSpeedMPH,WindSpeedGustMPH,Humidity,HourlyPrecipIn,Conditions,Clouds,dailyrainin,SoftwareType,DateUTC
2017-04-30 00:28:00,46.0,29.0,-100.00,ENE,68,3.0,-999.0,51,-99.99,,,-99.99,,2017-04-30 05:28:00,
2017-04-30 00:59:00,46.0,29.0,-100.00,ENE,68,3.0,10.0,51,-99.99,,,-99.99,,2017-04-30 05:59:00,
2017-04-30 01:05:00,46.0,25.0,-100.00,ENE,58,5.0,12.0,44,-99.99,,,-99.99,,2017-04-30 06:05:00,
2017-04-30 02:28:00,45.0,-99.9,-100.00,ENE,78,3.0,14.0,35,-99.99,,,-99.99,,2017-04-30 07:28:00,
2017-04-30 02:49:00,45.0,19.0,-100.00,ENE,78,3.0,14.0,35,-99.99,,,-99.99,,2017-04-30 07:49:00,
2017-04-30 05:05:00,42.0,20.0,-100.00,ENE,61,5.0,15.0,41,-99.99,,,-99.99,,2017-04-30 10:05:00,
2017-04-30 05:38:00,42.0,20.0,-100.00,ENE,61,5.0,-999.0,41,-99.99,,,-99.99,,2017-04-30 10:38:00,
2017-04-30 06:05:00,42.0,24.0,-100.00,ENE,71,6.0,14.0,48,-99.99,,,-99.99,,2017-04-30 11:05:00,
2017-04-30 07:05:00,41.0,25.0,-100.00,ENE,67,7.0,16.0,53,-99.99,,,-99.99,,2017-04-30 12:05:00,
2017-04-30 08:27:00,43.0,28.0,-100.00,ENE,60,-999.9,-999.0,55,-99.99,,,-99.99,,2017-04-30 13:27:00,
2017-04-30 08:58:00,43.0,28.0,-100.00,ENE,60,7.0,15.0,55,-99.99,,,-99.99,,2017-04-30 13:58:00,
2017-04-30 09:28:00,43.0,29.0,-100.00,East,80,6.0,16.0,57,-99.99,,,-99.99,,2017-04-30 14:28:00,
2017-04-30 10:00:00,43.0,29.0,-100.00,East,80,6.0,-999.0,57,-99.99,,,-99.99,,2017-04-30 15:00:00,
2017-04-30 10:28:00,44.0,31.0,-100.00,ENE,74,5.0,15.0,61,-99.99,,,-99.99,,2017-04-30 15:28:00,
2017-04-30 10:38:00,44.0,31.0,-100.00,ENE,74,-999.9,-999.0,61,-99.99,,,-99.99,,2017-04-30 15:38:00,
2017-04-30 13:05:00,47.0,35.0,-100.00,East,95,7.0,16.0,64,-99.99,,,-99.99,,2017-04-30 18:05:00,
2017-04-30 16:01:00,49.0,35.0,-100.00,East,83,6.0,-999.0,59,-99.99,,,-99.99,,2017-04-30 21:01:00,
2017-04-30 20:05:00,43.0,37.0,-100.00,ENE,76,10.0,21.0,79,-99.99,,,-99.99,,2017-05-01 01:05:00,
2017-04-30 20:49:00,43.0,37.0,-100.00,ENE,76,10.0,21.0,79,-99.99,,,-99.99,,2017-05-01 01:49:00,
2017-04-30 22:28:00,41.0,36.0,-100.00,ENE,71,8.0,20.0,82,-99.99,,,-99.99,,2017-05-01 03:28:00,